Route Details

Aircraft Information
Group: North America Fleet
Types: B738, B752, B762, B763
Route Data
Distance: 723nm
Duration: 2h 25m
Origin METAR: KBWI 010454Z 00000KT 10SM FEW023 OVC034 02/M01 A3019 RMK AO2 SLP223 T00221006 400890022
Dest. METAR: KLAL 010515Z AUTO 00000KT 10SM CLR 17/17 A3019 RMK AO2 T01730168
Freight Data
(for Feb 1, 2023)
Load Factor:
78%
Manifested Cargo: 15,737lbs
Financial History
Total Freight: 112,003lbs
Average Load: 0lbs/flt
Fuel Used: 29,929lbs
Avg. Fuel Used: 0lbs/flt
Fuel Expense: $15,821
Avg. Fuel Expense: $0
Avg. Fuel Cost: $0/lbs
Total Gross Income: $285,608
Pilot Pay: $508
Total Expenses: $55,737
Total Revenue: $212,276
Average Revenue: $0

Capitol Logistics 334




KBWI
Baltimore/Washington International Airport
Baltimore, Maryland
KLAL
Lakeland Linder Regional Airport
Lakeland, Florida

Activity Log

Date Flight Route Aircraft Duration
01/31/2023 CPX334 TERPZ7 RRSIN DCT GSO DCT SLOJO Q103 PUPYY DCT KYYUU LUBBR3 B752 2h 14m
07/18/2022 CPX334 TERPZ7 RRSIN DCT GSO Q75 TEUFL DCT KYYUU LUBBR3 B763 2h 04m